sensor_id;sensor_type;location;lat;lon;timestamp;temperature;humidity
9118;DHT22;4594;50.994;7.126;2022-12-01T00:00:57;9.70;60.00
9118;DHT22;4594;50.994;7.126;2022-12-01T00:03:24;9.70;59.40
9118;DHT22;4594;50.994;7.126;2022-12-01T00:06:09;9.70;60.00
9118;DHT22;4594;50.994;7.126;2022-12-01T00:08:41;9.70;59.10
9118;DHT22;4594;50.994;7.126;2022-12-01T00:11:26;9.70;60.00
9118;DHT22;4594;50.994;7.126;2022-12-01T00:13:52;9.80;60.10
9118;DHT22;4594;50.994;7.126;2022-12-01T00:16:17;9.80;60.10
9118;DHT22;4594;50.994;7.126;2022-12-01T00:18:43;9.80;60.10
9118;DHT22;4594;50.994;7.126;2022-12-01T00:21:14;9.80;60.00
9118;DHT22;4594;50.994;7.126;2022-12-01T00:23:49;9.80;60.00
9118;DHT22;4594;50.994;7.126;2022-12-01T00:26:17;9.80;59.50
9118;DHT22;4594;50.994;7.126;2022-12-01T00:28:50;9.80;60.00
9118;DHT22;4594;50.994;7.126;2022-12-01T00:31:18;9.80;59.70
9118;DHT22;4594;50.994;7.126;2022-12-01T00:33:44;9.80;59.90
9118;DHT22;4594;50.994;7.126;2022-12-01T00:36:10;9.80;59.90
9118;DHT22;4594;50.994;7.126;2022-12-01T00:38:35;9.80;59.90
9118;DHT22;4594;50.994;7.126;2022-12-01T00:41:02;9.80;59.90
9118;DHT22;4594;50.994;7.126;2022-12-01T00:43:28;9.80;59.90
9118;DHT22;4594;50.994;7.126;2022-12-01T00:45:54;9.90;60.00
9118;DHT22;4594;50.994;7.126;2022-12-01T00:48:21;9.80;59.90
9118;DHT22;4594;50.994;7.126;2022-12-01T00:50:47;9.80;59.90
9118;DHT22;4594;50.994;7.126;2022-12-01T00:53:15;9.90;59.90
9118;DHT22;4594;50.994;7.126;2022-12-01T00:55:41;9.80;59.80
9118;DHT22;4594;50.994;7.126;2022-12-01T00:58:07;9.90;59.90
9118;DHT22;4594;50.994;7.126;2022-12-01T01:00:33;9.90;59.80
9118;DHT22;4594;50.994;7.126;2022-12-01T01:02:58;9.90;59.90
9118;DHT22;4594;50.994;7.126;2022-12-01T01:05:24;9.90;59.90
9118;DHT22;4594;50.994;7.126;2022-12-01T01:07:50;9.90;59.80
9118;DHT22;4594;50.994;7.126;2022-12-01T01:10:16;9.90;59.80
9118;DHT22;4594;50.994;7.126;2022-12-01T01:12:41;9.80;59.80
9118;DHT22;4594;50.994;7.126;2022-12-01T01:15:07;9.90;59.80
9118;DHT22;4594;50.994;7.126;2022-12-01T01:17:33;9.90;59.80
9118;DHT22;4594;50.994;7.126;2022-12-01T01:19:59;9.90;59.80
9118;DHT22;4594;50.994;7.126;2022-12-01T01:22:24;9.90;60.10
9118;DHT22;4594;50.994;7.126;2022-12-01T01:24:50;9.90;59.80
9118;DHT22;4594;50.994;7.126;2022-12-01T01:27:16;9.90;59.80
9118;DHT22;4594;50.994;7.126;2022-12-01T01:29:41;9.90;59.70
9118;DHT22;4594;50.994;7.126;2022-12-01T01:32:07;9.90;59.80
9118;DHT22;4594;50.994;7.126;2022-12-01T01:34:33;9.80;59.70
9118;DHT22;4594;50.994;7.126;2022-12-01T01:36:59;9.90;59.80
9118;DHT22;4594;50.994;7.126;2022-12-01T01:39:25;9.90;59.80
9118;DHT22;4594;50.994;7.126;2022-12-01T01:41:50;9.90;59.80
9118;DHT22;4594;50.994;7.126;2022-12-01T01:47:44;9.90;58.90
9118;DHT22;4594;50.994;7.126;2022-12-01T01:50:12;9.90;59.80
9118;DHT22;4594;50.994;7.126;2022-12-01T01:52:47;9.90;59.60
9118;DHT22;4594;50.994;7.126;2022-12-01T01:55:17;9.90;59.40
9118;DHT22;4594;50.994;7.126;2022-12-01T01:57:44;9.90;59.80
9118;DHT22;4594;50.994;7.126;2022-12-01T02:00:13;9.90;59.80
9118;DHT22;4594;50.994;7.126;2022-12-01T02:02:43;9.90;59.70
9118;DHT22;4594;50.994;7.126;2022-12-01T02:05:23;9.90;59.80
9118;DHT22;4594;50.994;7.126;2022-12-01T02:07:56;9.90;59.10
9118;DHT22;4594;50.994;7.126;2022-12-01T02:20:10;9.90;59.40
9118;DHT22;4594;50.994;7.126;2022-12-01T02:23:03;9.90;58.90
9118;DHT22;4594;50.994;7.126;2022-12-01T02:31:49;9.90;59.10
9118;DHT22;4594;50.994;7.126;2022-12-01T02:34:24;9.90;59.50
9118;DHT22;4594;50.994;7.126;2022-12-01T02:36:56;9.90;59.90
9118;DHT22;4594;50.994;7.126;2022-12-01T02:39:34;9.90;59.70
9118;DHT22;4594;50.994;7.126;2022-12-01T02:42:15;9.90;59.50
9118;DHT22;4594;50.994;7.126;2022-12-01T02:45:09;10.00;58.60
9118;DHT22;4594;50.994;7.126;2022-12-01T02:47:39;9.90;59.50
9118;DHT22;4594;50.994;7.126;2022-12-01T02:50:07;9.90;59.80
9118;DHT22;4594;50.994;7.126;2022-12-01T02:52:37;9.90;59.80
9118;DHT22;4594;50.994;7.126;2022-12-01T02:55:04;10.00;58.90
9118;DHT22;4594;50.994;7.126;2022-12-01T02:57:30;10.00;59.00
9118;DHT22;4594;50.994;7.126;2022-12-01T02:59:56;10.00;58.90
9118;DHT22;4594;50.994;7.126;2022-12-01T03:05:28;10.00;58.70
9118;DHT22;4594;50.994;7.126;2022-12-01T03:10:55;10.00;58.30
9118;DHT22;4594;50.994;7.126;2022-12-01T03:13:47;10.00;58.20
9118;DHT22;4594;50.994;7.126;2022-12-01T03:16:40;10.00;57.70
9118;DHT22;4594;50.994;7.126;2022-12-01T03:19:31;10.00;58.20
9118;DHT22;4594;50.994;7.126;2022-12-01T03:22:43;10.00;57.90
9118;DHT22;4594;50.994;7.126;2022-12-01T03:25:13;10.00;58.20
9118;DHT22;4594;50.994;7.126;2022-12-01T03:27:42;10.00;58.70
9118;DHT22;4594;50.994;7.126;2022-12-01T03:30:11;10.00;58.60
9118;DHT22;4594;50.994;7.126;2022-12-01T03:32:46;9.90;59.40
9118;DHT22;4594;50.994;7.126;2022-12-01T03:35:47;9.90;58.80
9118;DHT22;4594;50.994;7.126;2022-12-01T03:38:25;9.90;58.10
9118;DHT22;4594;50.994;7.126;2022-12-01T03:40:55;9.90;59.10
9118;DHT22;4594;50.994;7.126;2022-12-01T03:43:31;9.90;59.20
9118;DHT22;4594;50.994;7.126;2022-12-01T03:48:38;9.90;58.70
9118;DHT22;4594;50.994;7.126;2022-12-01T03:51:15;9.90;59.80
9118;DHT22;4594;50.994;7.126;2022-12-01T03:57:08;9.90;58.40
9118;DHT22;4594;50.994;7.126;2022-12-01T03:59:38;9.90;59.10
9118;DHT22;4594;50.994;7.126;2022-12-01T04:02:06;9.90;59.50
9118;DHT22;4594;50.994;7.126;2022-12-01T04:04:32;9.90;59.40
9118;DHT22;4594;50.994;7.126;2022-12-01T04:06:58;9.90;59.50
9118;DHT22;4594;50.994;7.126;2022-12-01T04:09:24;9.90;59.50
9118;DHT22;4594;50.994;7.126;2022-12-01T04:11:49;9.90;59.50
9118;DHT22;4594;50.994;7.126;2022-12-01T04:14:33;9.90;59.60
9118;DHT22;4594;50.994;7.126;2022-12-01T04:16:59;9.90;59.60
9118;DHT22;4594;50.994;7.126;2022-12-01T04:19:25;9.90;59.60
9118;DHT22;4594;50.994;7.126;2022-12-01T04:21:50;9.90;59.60
9118;DHT22;4594;50.994;7.126;2022-12-01T04:24:16;9.90;59.60
9118;DHT22;4594;50.994;7.126;2022-12-01T04:26:41;9.90;59.50
9118;DHT22;4594;50.994;7.126;2022-12-01T04:29:09;9.90;59.50
9118;DHT22;4594;50.994;7.126;2022-12-01T04:31:36;9.90;59.40
9118;DHT22;4594;50.994;7.126;2022-12-01T04:34:02;9.90;59.50
9118;DHT22;4594;50.994;7.126;2022-12-01T04:36:32;9.90;59.40
9118;DHT22;4594;50.994;7.126;2022-12-01T04:38:59;9.90;59.00
9118;DHT22;4594;50.994;7.126;2022-12-01T04:41:25;9.90;59.30
9118;DHT22;4594;50.994;7.126;2022-12-01T04:43:52;9.90;59.30
9118;DHT22;4594;50.994;7.126;2022-12-01T04:46:19;9.90;59.30
9118;DHT22;4594;50.994;7.126;2022-12-01T04:48:45;9.90;59.40
9118;DHT22;4594;50.994;7.126;2022-12-01T04:51:11;9.90;59.20
9118;DHT22;4594;50.994;7.126;2022-12-01T04:53:36;9.90;59.10
9118;DHT22;4594;50.994;7.126;2022-12-01T04:56:03;9.80;59.10
9118;DHT22;4594;50.994;7.126;2022-12-01T04:58:31;9.90;59.20
9118;DHT22;4594;50.994;7.126;2022-12-01T05:01:03;9.90;59.10
9118;DHT22;4594;50.994;7.126;2022-12-01T05:03:40;9.80;58.60
9118;DHT22;4594;50.994;7.126;2022-12-01T05:06:13;9.80;58.40
9118;DHT22;4594;50.994;7.126;2022-12-01T05:08:43;9.80;58.60
9118;DHT22;4594;50.994;7.126;2022-12-01T05:11:10;9.80;59.10
9118;DHT22;4594;50.994;7.126;2022-12-01T05:13:42;9.80;59.00
9118;DHT22;4594;50.994;7.126;2022-12-01T05:16:31;9.80;58.70
9118;DHT22;4594;50.994;7.126;2022-12-01T05:18:59;9.80;58.20
9118;DHT22;4594;50.994;7.126;2022-12-01T05:21:47;9.80;59.00
9118;DHT22;4594;50.994;7.126;2022-12-01T05:24:14;9.80;59.00
9118;DHT22;4594;50.994;7.126;2022-12-01T05:26:41;9.80;59.10
9118;DHT22;4594;50.994;7.126;2022-12-01T05:29:08;9.80;59.10
9118;DHT22;4594;50.994;7.126;2022-12-01T05:31:35;9.80;59.10
9118;DHT22;4594;50.994;7.126;2022-12-01T05:34:01;9.80;59.10
9118;DHT22;4594;50.994;7.126;2022-12-01T05:36:27;9.80;59.10
9118;DHT22;4594;50.994;7.126;2022-12-01T05:38:52;9.80;59.00
9118;DHT22;4594;50.994;7.126;2022-12-01T05:41:19;9.80;58.90
9118;DHT22;4594;50.994;7.126;2022-12-01T05:43:45;9.80;58.90
9118;DHT22;4594;50.994;7.126;2022-12-01T05:46:10;9.70;58.80
9118;DHT22;4594;50.994;7.126;2022-12-01T05:48:36;9.70;58.80
9118;DHT22;4594;50.994;7.126;2022-12-01T05:51:13;9.70;58.80
9118;DHT22;4594;50.994;7.126;2022-12-01T05:53:40;9.70;57.90
9118;DHT22;4594;50.994;7.126;2022-12-01T05:56:07;9.70;58.70
9118;DHT22;4594;50.994;7.126;2022-12-01T05:58:34;9.70;58.60
9118;DHT22;4594;50.994;7.126;2022-12-01T06:01:00;9.70;58.60
9118;DHT22;4594;50.994;7.126;2022-12-01T06:03:26;9.70;58.70
9118;DHT22;4594;50.994;7.126;2022-12-01T06:05:52;9.70;58.90
9118;DHT22;4594;50.994;7.126;2022-12-01T06:08:17;9.70;59.10
9118;DHT22;4594;50.994;7.126;2022-12-01T06:10:44;9.70;59.20
9118;DHT22;4594;50.994;7.126;2022-12-01T06:13:10;9.70;59.20
9118;DHT22;4594;50.994;7.126;2022-12-01T06:15:36;9.70;59.20
9118;DHT22;4594;50.994;7.126;2022-12-01T06:18:02;9.70;59.10
9118;DHT22;4594;50.994;7.126;2022-12-01T06:20:27;9.70;59.10
9118;DHT22;4594;50.994;7.126;2022-12-01T06:22:53;9.70;59.00
9118;DHT22;4594;50.994;7.126;2022-12-01T06:25:19;9.70;59.00
9118;DHT22;4594;50.994;7.126;2022-12-01T06:27:44;9.70;58.90
9118;DHT22;4594;50.994;7.126;2022-12-01T06:30:10;9.70;58.90
9118;DHT22;4594;50.994;7.126;2022-12-01T06:32:36;9.70;58.80
9118;DHT22;4594;50.994;7.126;2022-12-01T06:35:02;9.70;58.80
9118;DHT22;4594;50.994;7.126;2022-12-01T06:37:28;9.70;58.80
9118;DHT22;4594;50.994;7.126;2022-12-01T06:39:54;9.70;58.80
9118;DHT22;4594;50.994;7.126;2022-12-01T06:42:19;9.70;58.70
9118;DHT22;4594;50.994;7.126;2022-12-01T06:44:45;9.60;58.70
9118;DHT22;4594;50.994;7.126;2022-12-01T06:47:11;9.60;58.80
9118;DHT22;4594;50.994;7.126;2022-12-01T06:49:36;9.60;58.90
9118;DHT22;4594;50.994;7.126;2022-12-01T06:52:02;9.60;58.90
9118;DHT22;4594;50.994;7.126;2022-12-01T06:54:29;9.60;59.00
9118;DHT22;4594;50.994;7.126;2022-12-01T06:56:55;9.60;59.00
9118;DHT22;4594;50.994;7.126;2022-12-01T06:59:20;9.60;58.90
9118;DHT22;4594;50.994;7.126;2022-12-01T07:01:46;9.60;58.90
9118;DHT22;4594;50.994;7.126;2022-12-01T07:04:12;9.60;58.90
9118;DHT22;4594;50.994;7.126;2022-12-01T07:06:38;9.60;58.90
9118;DHT22;4594;50.994;7.126;2022-12-01T07:09:03;9.60;58.90
9118;DHT22;4594;50.994;7.126;2022-12-01T07:11:29;9.60;58.90
9118;DHT22;4594;50.994;7.126;2022-12-01T07:13:56;9.70;59.00
9118;DHT22;4594;50.994;7.126;2022-12-01T07:16:23;9.70;59.10
9118;DHT22;4594;50.994;7.126;2022-12-01T07:18:49;9.60;58.90
9118;DHT22;4594;50.994;7.126;2022-12-01T07:21:15;9.60;58.90
9118;DHT22;4594;50.994;7.126;2022-12-01T07:23:41;9.60;58.90
9118;DHT22;4594;50.994;7.126;2022-12-01T07:26:16;9.70;59.10
9118;DHT22;4594;50.994;7.126;2022-12-01T07:28:42;9.70;58.70
9118;DHT22;4594;50.994;7.126;2022-12-01T07:33:41;9.70;59.00
9118;DHT22;4594;50.994;7.126;2022-12-01T07:36:07;9.70;59.10
9118;DHT22;4594;50.994;7.126;2022-12-01T07:38:34;9.60;59.00
9118;DHT22;4594;50.994;7.126;2022-12-01T07:41:07;9.60;58.90
9118;DHT22;4594;50.994;7.126;2022-12-01T07:43:38;9.60;58.60
9118;DHT22;4594;50.994;7.126;2022-12-01T07:46:06;9.60;58.90
9118;DHT22;4594;50.994;7.126;2022-12-01T07:48:34;9.60;59.20
9118;DHT22;4594;50.994;7.126;2022-12-01T07:51:02;9.60;58.90
9118;DHT22;4594;50.994;7.126;2022-12-01T07:53:29;9.60;59.00
9118;DHT22;4594;50.994;7.126;2022-12-01T07:55:55;9.60;59.10
9118;DHT22;4594;50.994;7.126;2022-12-01T07:58:20;9.60;59.20
9118;DHT22;4594;50.994;7.126;2022-12-01T08:00:46;9.60;59.10
9118;DHT22;4594;50.994;7.126;2022-12-01T08:03:13;9.60;59.10
9118;DHT22;4594;50.994;7.126;2022-12-01T08:05:38;9.60;59.20
9118;DHT22;4594;50.994;7.126;2022-12-01T08:08:04;9.60;59.20
9118;DHT22;4594;50.994;7.126;2022-12-01T08:10:30;9.60;59.20
9118;DHT22;4594;50.994;7.126;2022-12-01T08:12:57;9.60;59.30
9118;DHT22;4594;50.994;7.126;2022-12-01T08:15:23;9.70;59.40
9118;DHT22;4594;50.994;7.126;2022-12-01T08:17:48;9.70;59.50
9118;DHT22;4594;50.994;7.126;2022-12-01T08:20:14;9.80;59.40
9118;DHT22;4594;50.994;7.126;2022-12-01T08:22:40;9.70;59.30
9118;DHT22;4594;50.994;7.126;2022-12-01T08:25:06;9.70;59.30
9118;DHT22;4594;50.994;7.126;2022-12-01T08:27:33;9.70;59.40
9118;DHT22;4594;50.994;7.126;2022-12-01T08:29:59;9.70;59.50
9118;DHT22;4594;50.994;7.126;2022-12-01T08:32:25;9.70;59.60
9118;DHT22;4594;50.994;7.126;2022-12-01T08:34:51;9.70;59.90
9118;DHT22;4594;50.994;7.126;2022-12-01T08:37:16;9.80;59.90
9118;DHT22;4594;50.994;7.126;2022-12-01T08:39:42;9.80;59.90
9118;DHT22;4594;50.994;7.126;2022-12-01T08:42:08;9.90;60.10
9118;DHT22;4594;50.994;7.126;2022-12-01T08:44:33;9.90;60.10
9118;DHT22;4594;50.994;7.126;2022-12-01T08:46:59;9.90;59.90
9118;DHT22;4594;50.994;7.126;2022-12-01T08:49:25;9.90;60.00
9118;DHT22;4594;50.994;7.126;2022-12-01T08:51:51;9.90;60.10
9118;DHT22;4594;50.994;7.126;2022-12-01T08:54:16;10.00;59.00
9118;DHT22;4594;50.994;7.126;2022-12-01T08:56:43;10.00;59.00
9118;DHT22;4594;50.994;7.126;2022-12-01T08:59:10;10.00;58.80
9118;DHT22;4594;50.994;7.126;2022-12-01T09:01:36;10.00;58.90
9118;DHT22;4594;50.994;7.126;2022-12-01T09:04:21;10.00;58.90
9118;DHT22;4594;50.994;7.126;2022-12-01T09:06:50;10.10;58.90
9118;DHT22;4594;50.994;7.126;2022-12-01T09:09:19;10.00;58.70
9118;DHT22;4594;50.994;7.126;2022-12-01T09:11:49;10.10;58.70
9118;DHT22;4594;50.994;7.126;2022-12-01T09:14:17;10.10;58.80
9118;DHT22;4594;50.994;7.126;2022-12-01T09:16:45;10.10;58.70
9118;DHT22;4594;50.994;7.126;2022-12-01T09:19:14;10.10;58.60
9118;DHT22;4594;50.994;7.126;2022-12-01T09:21:42;10.10;58.80
9118;DHT22;4594;50.994;7.126;2022-12-01T09:24:10;10.10;58.60
9118;DHT22;4594;50.994;7.126;2022-12-01T09:26:37;10.10;58.70
9118;DHT22;4594;50.994;7.126;2022-12-01T09:29:05;10.20;58.80
9118;DHT22;4594;50.994;7.126;2022-12-01T09:31:36;10.20;58.70
9118;DHT22;4594;50.994;7.126;2022-12-01T09:34:04;10.20;58.80
9118;DHT22;4594;50.994;7.126;2022-12-01T09:36:34;10.20;58.70
9118;DHT22;4594;50.994;7.126;2022-12-01T09:39:01;10.20;58.90
9118;DHT22;4594;50.994;7.126;2022-12-01T09:41:49;10.20;58.90
9118;DHT22;4594;50.994;7.126;2022-12-01T09:47:18;10.30;57.70
9118;DHT22;4594;50.994;7.126;2022-12-01T09:50:05;10.30;58.60
9118;DHT22;4594;50.994;7.126;2022-12-01T09:52:44;10.30;58.00
9118;DHT22;4594;50.994;7.126;2022-12-01T09:55:16;10.30;57.80
9118;DHT22;4594;50.994;7.126;2022-12-01T09:57:46;10.30;58.40
9118;DHT22;4594;50.994;7.126;2022-12-01T10:00:23;10.30;58.20
9118;DHT22;4594;50.994;7.126;2022-12-01T10:03:33;10.30;57.40
9118;DHT22;4594;50.994;7.126;2022-12-01T10:05:45;10.30;58.30
9118;DHT22;4594;50.994;7.126;2022-12-01T10:08:18;10.30;58.00
9118;DHT22;4594;50.994;7.126;2022-12-01T10:10:50;10.30;58.00
9118;DHT22;4594;50.994;7.126;2022-12-01T10:13:27;10.30;58.10
9118;DHT22;4594;50.994;7.126;2022-12-01T10:18:40;10.30;58.10
9118;DHT22;4594;50.994;7.126;2022-12-01T10:24:27;10.30;56.70
9118;DHT22;4594;50.994;7.126;2022-12-01T10:27:27;10.30;56.60
9118;DHT22;4594;50.994;7.126;2022-12-01T10:30:16;10.20;56.30
9118;DHT22;4594;50.994;7.126;2022-12-01T10:32:50;10.20;56.30
9118;DHT22;4594;50.994;7.126;2022-12-01T10:35:20;10.20;57.70
9118;DHT22;4594;50.994;7.126;2022-12-01T10:37:56;10.20;57.70
9118;DHT22;4594;50.994;7.126;2022-12-01T10:40:25;10.20;56.70
9118;DHT22;4594;50.994;7.126;2022-12-01T10:42:52;10.10;57.50
9118;DHT22;4594;50.994;7.126;2022-12-01T10:45:30;10.10;57.80
9118;DHT22;4594;50.994;7.126;2022-12-01T10:48:19;10.10;56.70
9118;DHT22;4594;50.994;7.126;2022-12-01T10:50:49;10.20;56.80
9118;DHT22;4594;50.994;7.126;2022-12-01T10:56:14;10.20;57.40
9118;DHT22;4594;50.994;7.126;2022-12-01T10:58:56;10.20;57.00
9118;DHT22;4594;50.994;7.126;2022-12-01T11:01:26;10.20;57.90
9118;DHT22;4594;50.994;7.126;2022-12-01T11:04:06;10.30;58.20
9118;DHT22;4594;50.994;7.126;2022-12-01T11:06:48;10.30;57.00
9118;DHT22;4594;50.994;7.126;2022-12-01T11:09:20;10.30;57.00
9118;DHT22;4594;50.994;7.126;2022-12-01T11:12:02;10.60;57.00
9118;DHT22;4594;50.994;7.126;2022-12-01T11:19:52;10.30;55.50
9118;DHT22;4594;50.994;7.126;2022-12-01T11:22:28;10.20;57.10
9118;DHT22;4594;50.994;7.126;2022-12-01T11:25:03;10.20;56.10
9118;DHT22;4594;50.994;7.126;2022-12-01T11:27:50;10.20;56.40
9118;DHT22;4594;50.994;7.126;2022-12-01T11:30:25;10.20;55.10
9118;DHT22;4594;50.994;7.126;2022-12-01T11:33:01;10.10;55.70
9118;DHT22;4594;50.994;7.126;2022-12-01T11:35:31;10.10;55.50
9118;DHT22;4594;50.994;7.126;2022-12-01T11:38:01;10.10;56.40
9118;DHT22;4594;50.994;7.126;2022-12-01T11:40:44;10.10;56.70
9118;DHT22;4594;50.994;7.126;2022-12-01T11:43:34;10.10;55.50
9118;DHT22;4594;50.994;7.126;2022-12-01T11:46:05;10.10;54.80
9118;DHT22;4594;50.994;7.126;2022-12-01T11:48:34;10.10;55.90
9118;DHT22;4594;50.994;7.126;2022-12-01T11:53:45;10.10;54.80
9118;DHT22;4594;50.994;7.126;2022-12-01T11:56:23;10.10;56.70
9118;DHT22;4594;50.994;7.126;2022-12-01T11:59:14;10.10;55.90
9118;DHT22;4594;50.994;7.126;2022-12-01T12:01:57;10.10;55.80
9118;DHT22;4594;50.994;7.126;2022-12-01T12:22:43;10.20;55.70
9118;DHT22;4594;50.994;7.126;2022-12-01T12:25:40;10.20;56.40
9118;DHT22;4594;50.994;7.126;2022-12-01T12:43:38;10.20;55.10
9118;DHT22;4594;50.994;7.126;2022-12-01T12:51:56;10.30;56.70
9118;DHT22;4594;50.994;7.126;2022-12-01T13:03:12;10.30;56.90
9118;DHT22;4594;50.994;7.126;2022-12-01T13:05:59;10.40;55.90
9118;DHT22;4594;50.994;7.126;2022-12-01T13:11:18;10.50;56.80
9118;DHT22;4594;50.994;7.126;2022-12-01T13:14:17;10.40;57.50
9118;DHT22;4594;50.994;7.126;2022-12-01T13:16:52;10.60;55.40
9118;DHT22;4594;50.994;7.126;2022-12-01T13:19:34;10.60;57.30
9118;DHT22;4594;50.994;7.126;2022-12-01T13:22:04;10.60;56.00
9118;DHT22;4594;50.994;7.126;2022-12-01T13:24:32;10.70;57.80
9118;DHT22;4594;50.994;7.126;2022-12-01T13:27:10;10.70;57.90
9118;DHT22;4594;50.994;7.126;2022-12-01T13:29:45;10.80;56.70
9118;DHT22;4594;50.994;7.126;2022-12-01T13:35:00;10.80;55.80
9118;DHT22;4594;50.994;7.126;2022-12-01T13:37:36;10.90;57.20
9118;DHT22;4594;50.994;7.126;2022-12-01T13:40:09;10.90;55.90
9118;DHT22;4594;50.994;7.126;2022-12-01T13:43:01;10.90;56.20
9118;DHT22;4594;50.994;7.126;2022-12-01T13:45:35;10.90;56.10
9118;DHT22;4594;50.994;7.126;2022-12-01T13:48:04;10.80;55.70
9118;DHT22;4594;50.994;7.126;2022-12-01T13:53:30;10.80;55.30
9118;DHT22;4594;50.994;7.126;2022-12-01T13:56:04;10.80;54.40
9118;DHT22;4594;50.994;7.126;2022-12-01T13:58:51;10.80;55.80
9118;DHT22;4594;50.994;7.126;2022-12-01T14:06:38;10.70;54.20
9118;DHT22;4594;50.994;7.126;2022-12-01T14:09:17;10.70;54.50
9118;DHT22;4594;50.994;7.126;2022-12-01T14:12:17;10.60;55.50
9118;DHT22;4594;50.994;7.126;2022-12-01T14:15:00;10.60;53.70
9118;DHT22;4594;50.994;7.126;2022-12-01T14:17:46;10.50;54.60
9118;DHT22;4594;50.994;7.126;2022-12-01T14:20:21;10.40;55.60
9118;DHT22;4594;50.994;7.126;2022-12-01T14:25:29;10.30;53.60
9118;DHT22;4594;50.994;7.126;2022-12-01T14:28:03;10.30;55.20
9118;DHT22;4594;50.994;7.126;2022-12-01T14:33:42;10.20;54.60
9118;DHT22;4594;50.994;7.126;2022-12-01T14:38:48;10.10;54.30
9118;DHT22;4594;50.994;7.126;2022-12-01T14:46:57;10.20;55.00
9118;DHT22;4594;50.994;7.126;2022-12-01T14:52:40;10.00;54.90
9118;DHT22;4594;50.994;7.126;2022-12-01T14:55:21;10.00;54.70
9118;DHT22;4594;50.994;7.126;2022-12-01T14:57:58;9.90;55.10
9118;DHT22;4594;50.994;7.126;2022-12-01T15:00:29;9.90;55.80
9118;DHT22;4594;50.994;7.126;2022-12-01T15:03:02;9.90;56.10
9118;DHT22;4594;50.994;7.126;2022-12-01T15:05:38;9.90;55.30
9118;DHT22;4594;50.994;7.126;2022-12-01T15:08:22;9.90;55.10
9118;DHT22;4594;50.994;7.126;2022-12-01T15:10:55;9.90;54.30
9118;DHT22;4594;50.994;7.126;2022-12-01T15:13:27;9.80;55.20
9118;DHT22;4594;50.994;7.126;2022-12-01T15:16:01;9.80;55.70
9118;DHT22;4594;50.994;7.126;2022-12-01T15:18:37;9.80;55.10
9118;DHT22;4594;50.994;7.126;2022-12-01T15:24:15;9.70;54.40
9118;DHT22;4594;50.994;7.126;2022-12-01T15:26:48;9.70;54.60
9118;DHT22;4594;50.994;7.126;2022-12-01T15:29:24;9.70;55.70
9118;DHT22;4594;50.994;7.126;2022-12-01T15:32:01;9.70;55.50
9118;DHT22;4594;50.994;7.126;2022-12-01T15:37:06;9.60;55.50
9118;DHT22;4594;50.994;7.126;2022-12-01T15:39:44;9.60;55.40
9118;DHT22;4594;50.994;7.126;2022-12-01T15:42:28;9.60;54.70
9118;DHT22;4594;50.994;7.126;2022-12-01T15:44:59;9.60;54.10
9118;DHT22;4594;50.994;7.126;2022-12-01T15:50:30;9.50;54.10
9118;DHT22;4594;50.994;7.126;2022-12-01T15:53:05;9.50;53.80
9118;DHT22;4594;50.994;7.126;2022-12-01T15:55:45;9.50;55.20
9118;DHT22;4594;50.994;7.126;2022-12-01T15:58:29;9.40;54.70
9118;DHT22;4594;50.994;7.126;2022-12-01T16:01:00;9.40;54.50
9118;DHT22;4594;50.994;7.126;2022-12-01T16:03:46;9.40;54.80
9118;DHT22;4594;50.994;7.126;2022-12-01T16:06:16;9.30;55.40
9118;DHT22;4594;50.994;7.126;2022-12-01T16:09:02;9.30;55.20
9118;DHT22;4594;50.994;7.126;2022-12-01T16:11:30;9.20;53.80
9118;DHT22;4594;50.994;7.126;2022-12-01T16:14:04;9.20;55.10
9118;DHT22;4594;50.994;7.126;2022-12-01T16:16:46;9.20;54.50
9118;DHT22;4594;50.994;7.126;2022-12-01T16:24:29;9.10;54.80
9118;DHT22;4594;50.994;7.126;2022-12-01T16:27:21;9.10;55.10
9118;DHT22;4594;50.994;7.126;2022-12-01T16:29:55;9.10;54.10
9118;DHT22;4594;50.994;7.126;2022-12-01T16:32:40;9.00;55.00
9118;DHT22;4594;50.994;7.126;2022-12-01T16:35:22;9.00;53.60
9118;DHT22;4594;50.994;7.126;2022-12-01T16:37:49;9.00;54.00
9118;DHT22;4594;50.994;7.126;2022-12-01T16:40:15;9.00;55.60
9118;DHT22;4594;50.994;7.126;2022-12-01T16:42:44;9.00;55.50
9118;DHT22;4594;50.994;7.126;2022-12-01T16:45:11;9.00;55.60
9118;DHT22;4594;50.994;7.126;2022-12-01T16:47:39;9.00;55.60
9118;DHT22;4594;50.994;7.126;2022-12-01T16:50:08;9.00;55.60
9118;DHT22;4594;50.994;7.126;2022-12-01T16:52:41;9.00;55.50
9118;DHT22;4594;50.994;7.126;2022-12-01T16:57:58;9.00;53.90
9118;DHT22;4594;50.994;7.126;2022-12-01T17:00:23;9.00;55.80
9118;DHT22;4594;50.994;7.126;2022-12-01T17:02:49;9.00;55.70
9118;DHT22;4594;50.994;7.126;2022-12-01T17:05:17;9.00;55.60
9118;DHT22;4594;50.994;7.126;2022-12-01T17:07:43;9.00;55.60
9118;DHT22;4594;50.994;7.126;2022-12-01T17:10:09;9.00;55.60
9118;DHT22;4594;50.994;7.126;2022-12-01T17:12:35;9.00;55.40
9118;DHT22;4594;50.994;7.126;2022-12-01T17:15:01;9.00;55.40
9118;DHT22;4594;50.994;7.126;2022-12-01T17:17:28;9.00;55.40
9118;DHT22;4594;50.994;7.126;2022-12-01T17:19:54;9.00;55.50
9118;DHT22;4594;50.994;7.126;2022-12-01T17:22:20;8.90;55.40
9118;DHT22;4594;50.994;7.126;2022-12-01T17:24:46;8.90;55.40
9118;DHT22;4594;50.994;7.126;2022-12-01T17:27:12;8.90;55.50
9118;DHT22;4594;50.994;7.126;2022-12-01T17:29:37;8.90;55.50
9118;DHT22;4594;50.994;7.126;2022-12-01T17:32:04;8.90;55.70
9118;DHT22;4594;50.994;7.126;2022-12-01T17:34:32;8.90;55.90
9118;DHT22;4594;50.994;7.126;2022-12-01T17:36:58;8.90;55.60
9118;DHT22;4594;50.994;7.126;2022-12-01T17:39:23;8.90;55.60
9118;DHT22;4594;50.994;7.126;2022-12-01T17:41:49;8.90;55.70
9118;DHT22;4594;50.994;7.126;2022-12-01T17:44:15;8.90;55.80
9118;DHT22;4594;50.994;7.126;2022-12-01T17:46:40;9.00;55.90
9118;DHT22;4594;50.994;7.126;2022-12-01T17:49:06;9.00;55.90
9118;DHT22;4594;50.994;7.126;2022-12-01T17:51:36;9.00;55.80
9118;DHT22;4594;50.994;7.126;2022-12-01T17:54:03;9.00;55.90
9118;DHT22;4594;50.994;7.126;2022-12-01T17:56:29;8.90;55.80
9118;DHT22;4594;50.994;7.126;2022-12-01T17:58:54;8.90;55.60
9118;DHT22;4594;50.994;7.126;2022-12-01T18:01:20;8.90;55.70
9118;DHT22;4594;50.994;7.126;2022-12-01T18:03:47;8.90;55.70
9118;DHT22;4594;50.994;7.126;2022-12-01T18:06:14;8.90;55.80
9118;DHT22;4594;50.994;7.126;2022-12-01T18:08:41;8.90;55.70
9118;DHT22;4594;50.994;7.126;2022-12-01T18:11:10;8.90;55.50
9118;DHT22;4594;50.994;7.126;2022-12-01T18:13:41;8.90;55.20
9118;DHT22;4594;50.994;7.126;2022-12-01T18:16:11;8.90;55.40
9118;DHT22;4594;50.994;7.126;2022-12-01T18:18:37;8.90;55.10
9118;DHT22;4594;50.994;7.126;2022-12-01T18:21:14;8.90;55.50
9118;DHT22;4594;50.994;7.126;2022-12-01T18:23:41;8.90;54.20
9118;DHT22;4594;50.994;7.126;2022-12-01T18:26:12;8.90;55.60
9118;DHT22;4594;50.994;7.126;2022-12-01T18:28:38;8.80;55.50
9118;DHT22;4594;50.994;7.126;2022-12-01T18:33:31;8.80;55.60
9118;DHT22;4594;50.994;7.126;2022-12-01T18:35:57;8.80;55.30
9118;DHT22;4594;50.994;7.126;2022-12-01T18:38:23;8.80;55.50
9118;DHT22;4594;50.994;7.126;2022-12-01T18:40:58;8.80;55.40
9118;DHT22;4594;50.994;7.126;2022-12-01T18:43:26;8.80;54.80
9118;DHT22;4594;50.994;7.126;2022-12-01T18:45:56;8.70;55.30
9118;DHT22;4594;50.994;7.126;2022-12-01T18:48:23;8.70;55.40
9118;DHT22;4594;50.994;7.126;2022-12-01T18:50:49;8.70;55.40
9118;DHT22;4594;50.994;7.126;2022-12-01T18:53:16;8.70;55.40
9118;DHT22;4594;50.994;7.126;2022-12-01T18:55:42;8.70;55.40
9118;DHT22;4594;50.994;7.126;2022-12-01T18:58:07;8.70;55.20
9118;DHT22;4594;50.994;7.126;2022-12-01T19:00:34;8.70;55.10
9118;DHT22;4594;50.994;7.126;2022-12-01T19:03:00;8.70;55.00
9118;DHT22;4594;50.994;7.126;2022-12-01T19:05:26;8.60;54.90
9118;DHT22;4594;50.994;7.126;2022-12-01T19:07:52;8.60;54.80